Time,TemperatureF,DewpointF,PressureIn,WindDirection,WindDirectionDegrees,WindSpeedMPH,WindSpeedGustMPH,Humidity,HourlyPrecipIn,Conditions,Clouds,dailyrainin,SoftwareType,DateUTC
2018-04-27 00:00:00,53.4,49.9,30.03,West,280,0.2,2.3,88,0.00,FEW,,0.00,WeatherDisplay:10.37,2018-04-27 07:00:00,
2018-04-27 00:05:00,53.2,50.0,30.03,West,280,0.0,1.2,89,0.00,CLR,,0.00,WeatherDisplay:10.37,2018-04-27 07:05:00,
2018-04-27 00:10:00,53.1,49.6,30.03,West,280,0.0,0.0,88,0.00,CLR,,0.00,WeatherDisplay:10.37,2018-04-27 07:10:00,
2018-04-27 00:15:00,52.8,49.6,30.03,West,280,0.0,0.0,89,0.00,CLR,,0.00,WeatherDisplay:10.37,2018-04-27 07:15:00,
2018-04-27 00:20:00,52.6,49.4,30.03,West,280,0.6,1.2,89,0.00,CLR,,0.00,WeatherDisplay:10.37,2018-04-27 07:20:00,
2018-04-27 00:25:00,52.6,49.8,30.04,West,280,1.0,2.0,90,0.00,CLR,,0.00,WeatherDisplay:10.37,2018-04-27 07:25:00,
2018-04-27 00:30:00,52.6,49.8,30.04,West,280,0.0,2.0,90,0.00,CLR,,0.00,WeatherDisplay:10.37,2018-04-27 07:30:00,
2018-04-27 00:35:00,52.6,49.8,30.04,West,280,0.0,0.0,90,0.00,CLR,,0.00,WeatherDisplay:10.37,2018-04-27 07:35:00,
2018-04-27 00:39:00,52.7,49.8,30.04,West,280,0.0,0.0,90,0.00,CLR,,0.00,WeatherDisplay:10.37,2018-04-27 07:39:00,
2018-04-27 00:44:00,52.6,49.8,30.04,West,280,0.0,0.0,90,0.00,CLR,,0.00,WeatherDisplay:10.37,2018-04-27 07:44:00,
2018-04-27 00:49:00,52.5,49.7,30.04,West,280,0.0,0.0,90,0.00,CLR,,0.00,WeatherDisplay:10.37,2018-04-27 07:49:00,
2018-04-27 00:54:00,52.3,49.5,30.04,West,280,0.0,0.0,90,0.00,BKN,,0.00,WeatherDisplay:10.37,2018-04-27 07:54:00,
2018-04-27 00:59:00,52.0,49.2,30.04,West,280,0.0,0.0,90,0.00,BKN,,0.00,WeatherDisplay:10.37,2018-04-27 07:59:00,
2018-04-27 01:04:00,51.8,49.3,30.04,West,280,0.0,0.0,91,0.00,BKN,,0.00,WeatherDisplay:10.37,2018-04-27 08:04:00,
2018-04-27 01:09:00,52.1,49.6,30.04,West,280,0.0,0.0,91,0.00,BKN,,0.00,WeatherDisplay:10.37,2018-04-27 08:09:00,
2018-04-27 01:14:00,52.0,49.5,30.04,West,280,0.0,0.0,91,0.00,BKN,,0.00,WeatherDisplay:10.37,2018-04-27 08:14:00,
2018-04-27 01:19:00,51.8,49.3,30.04,West,280,0.0,0.0,91,0.00,BKN,,0.00,WeatherDisplay:10.37,2018-04-27 08:19:00,
2018-04-27 01:24:00,51.7,49.5,30.04,West,280,0.0,0.0,92,0.00,OVC,,0.00,WeatherDisplay:10.37,2018-04-27 08:24:00,
2018-04-27 01:29:00,51.7,49.5,30.04,WNW,286,0.0,0.0,92,0.00,OVC,,0.00,WeatherDisplay:10.37,2018-04-27 08:29:00,
2018-04-27 01:34:00,51.9,49.6,30.03,WNW,286,0.6,2.3,92,0.00,OVC,,0.00,WeatherDisplay:10.37,2018-04-27 08:34:00,
2018-04-27 01:39:00,51.9,49.6,30.03,WNW,286,0.0,0.0,92,0.00,OVC,,0.00,WeatherDisplay:10.37,2018-04-27 08:39:00,
2018-04-27 01:44:00,51.8,49.5,30.03,WNW,286,1.2,2.3,92,0.00,OVC,,0.00,WeatherDisplay:10.37,2018-04-27 08:44:00,
2018-04-27 01:49:00,52.0,49.7,30.04,WNW,286,1.1,2.3,92,0.00,OVC,,0.00,WeatherDisplay:10.37,2018-04-27 08:49:00,
2018-04-27 01:54:00,52.0,49.7,30.03,WNW,286,0.1,1.2,92,0.00,OVC,,0.00,WeatherDisplay:10.37,2018-04-27 08:54:00,
2018-04-27 01:59:00,51.8,49.5,30.04,WSW,244,0.3,3.5,92,0.00,OVC,,0.00,WeatherDisplay:10.37,2018-04-27 08:59:00,
2018-04-27 02:04:00,51.8,49.5,30.04,WSW,244,0.3,1.2,92,0.00,OVC,,0.00,WeatherDisplay:10.37,2018-04-27 09:04:00,
2018-04-27 02:09:00,51.8,49.5,30.04,WSW,244,0.8,1.2,92,0.00,OVC,,0.00,WeatherDisplay:10.37,2018-04-27 09:09:00,
2018-04-27 02:14:00,51.9,49.6,30.04,WSW,244,1.6,2.3,92,0.00,OVC,,0.00,WeatherDisplay:10.37,2018-04-27 09:14:00,
2018-04-27 02:19:00,51.7,49.5,30.03,WSW,244,0.0,0.0,92,0.00,OVC,,0.00,WeatherDisplay:10.37,2018-04-27 09:19:00,
2018-04-27 02:24:00,51.7,49.5,30.04,WSW,252,0.6,2.3,92,0.00,OVC,,0.00,WeatherDisplay:10.37,2018-04-27 09:24:00,